sensor_id;sensor_type;location;lat;lon;timestamp;temperature;humidity
19330;DHT22;9799;48.214;16.388;2023-04-24T00:02:24;16.00;99.90
19330;DHT22;9799;48.214;16.388;2023-04-24T00:05:46;16.00;99.90
19330;DHT22;9799;48.214;16.388;2023-04-24T00:09:08;16.00;99.90
19330;DHT22;9799;48.214;16.388;2023-04-24T00:12:31;16.00;99.90
19330;DHT22;9799;48.214;16.388;2023-04-24T00:15:52;15.90;99.90
19330;DHT22;9799;48.214;16.388;2023-04-24T00:19:13;16.00;99.90
19330;DHT22;9799;48.214;16.388;2023-04-24T00:22:34;16.00;99.90
19330;DHT22;9799;48.214;16.388;2023-04-24T00:25:57;16.00;99.90
19330;DHT22;9799;48.214;16.388;2023-04-24T00:29:18;15.90;99.90
19330;DHT22;9799;48.214;16.388;2023-04-24T00:32:39;16.00;99.90
19330;DHT22;9799;48.214;16.388;2023-04-24T00:36:00;15.90;99.90
19330;DHT22;9799;48.214;16.388;2023-04-24T00:39:21;15.90;99.90
19330;DHT22;9799;48.214;16.388;2023-04-24T00:42:45;15.90;99.90
19330;DHT22;9799;48.214;16.388;2023-04-24T00:46:07;15.90;99.90
19330;DHT22;9799;48.214;16.388;2023-04-24T00:49:28;15.90;99.90
19330;DHT22;9799;48.214;16.388;2023-04-24T00:52:49;15.90;99.90
19330;DHT22;9799;48.214;16.388;2023-04-24T00:56:10;15.90;99.90
19330;DHT22;9799;48.214;16.388;2023-04-24T00:59:33;15.80;99.90
19330;DHT22;9799;48.214;16.388;2023-04-24T01:02:55;15.80;99.90
19330;DHT22;9799;48.214;16.388;2023-04-24T01:06:19;15.80;99.90
19330;DHT22;9799;48.214;16.388;2023-04-24T01:09:41;15.80;99.90
19330;DHT22;9799;48.214;16.388;2023-04-24T01:13:02;15.80;99.90
19330;DHT22;9799;48.214;16.388;2023-04-24T01:16:25;15.70;99.90
19330;DHT22;9799;48.214;16.388;2023-04-24T01:19:46;15.70;99.90
19330;DHT22;9799;48.214;16.388;2023-04-24T01:23:09;15.80;99.90
19330;DHT22;9799;48.214;16.388;2023-04-24T01:26:30;15.70;99.90
19330;DHT22;9799;48.214;16.388;2023-04-24T01:29:51;15.70;99.90
19330;DHT22;9799;48.214;16.388;2023-04-24T01:33:13;15.60;99.90
19330;DHT22;9799;48.214;16.388;2023-04-24T01:36:35;15.60;99.90
19330;DHT22;9799;48.214;16.388;2023-04-24T01:39:57;15.60;99.90
19330;DHT22;9799;48.214;16.388;2023-04-24T01:43:19;15.60;99.90
19330;DHT22;9799;48.214;16.388;2023-04-24T01:46:40;15.70;99.90
19330;DHT22;9799;48.214;16.388;2023-04-24T01:50:02;15.70;99.90
19330;DHT22;9799;48.214;16.388;2023-04-24T01:53:23;15.60;99.90
19330;DHT22;9799;48.214;16.388;2023-04-24T01:56:46;15.50;99.90
19330;DHT22;9799;48.214;16.388;2023-04-24T02:00:08;15.50;99.90
19330;DHT22;9799;48.214;16.388;2023-04-24T02:03:31;15.60;99.90
19330;DHT22;9799;48.214;16.388;2023-04-24T02:06:53;15.60;99.90
19330;DHT22;9799;48.214;16.388;2023-04-24T02:10:14;15.70;99.90
19330;DHT22;9799;48.214;16.388;2023-04-24T02:13:36;15.60;99.90
19330;DHT22;9799;48.214;16.388;2023-04-24T02:16:57;15.40;99.90
19330;DHT22;9799;48.214;16.388;2023-04-24T02:20:19;15.30;99.90
19330;DHT22;9799;48.214;16.388;2023-04-24T02:23:40;15.30;99.90
19330;DHT22;9799;48.214;16.388;2023-04-24T02:27:01;15.20;99.90
19330;DHT22;9799;48.214;16.388;2023-04-24T02:30:23;15.20;99.90
19330;DHT22;9799;48.214;16.388;2023-04-24T02:33:45;15.20;99.90
19330;DHT22;9799;48.214;16.388;2023-04-24T02:37:06;15.00;99.90
19330;DHT22;9799;48.214;16.388;2023-04-24T02:40:27;14.90;99.90
19330;DHT22;9799;48.214;16.388;2023-04-24T02:43:48;14.90;99.90
19330;DHT22;9799;48.214;16.388;2023-04-24T02:47:11;14.70;99.90
19330;DHT22;9799;48.214;16.388;2023-04-24T02:50:32;14.60;99.90
19330;DHT22;9799;48.214;16.388;2023-04-24T02:53:53;14.50;99.90
19330;DHT22;9799;48.214;16.388;2023-04-24T02:57:14;14.60;99.90
19330;DHT22;9799;48.214;16.388;2023-04-24T03:00:36;14.70;99.90
19330;DHT22;9799;48.214;16.388;2023-04-24T03:03:58;14.60;99.90
19330;DHT22;9799;48.214;16.388;2023-04-24T03:07:19;14.80;99.90
19330;DHT22;9799;48.214;16.388;2023-04-24T03:10:40;14.70;99.90
19330;DHT22;9799;48.214;16.388;2023-04-24T03:14:02;14.70;99.90
19330;DHT22;9799;48.214;16.388;2023-04-24T03:17:23;14.70;99.90
19330;DHT22;9799;48.214;16.388;2023-04-24T03:20:46;14.60;99.90
19330;DHT22;9799;48.214;16.388;2023-04-24T03:24:08;14.60;99.90
19330;DHT22;9799;48.214;16.388;2023-04-24T03:27:29;14.60;99.90
19330;DHT22;9799;48.214;16.388;2023-04-24T03:30:51;14.50;99.90
19330;DHT22;9799;48.214;16.388;2023-04-24T03:34:12;14.50;99.90
19330;DHT22;9799;48.214;16.388;2023-04-24T03:37:35;14.50;99.90
19330;DHT22;9799;48.214;16.388;2023-04-24T03:40:56;14.50;99.90
19330;DHT22;9799;48.214;16.388;2023-04-24T03:44:17;14.50;99.90
19330;DHT22;9799;48.214;16.388;2023-04-24T03:47:38;14.40;99.90
19330;DHT22;9799;48.214;16.388;2023-04-24T03:50:59;14.50;99.90
19330;DHT22;9799;48.214;16.388;2023-04-24T03:54:22;14.50;99.90
19330;DHT22;9799;48.214;16.388;2023-04-24T03:57:44;14.50;99.90
19330;DHT22;9799;48.214;16.388;2023-04-24T04:01:05;14.50;99.90
19330;DHT22;9799;48.214;16.388;2023-04-24T04:04:26;14.50;99.90
19330;DHT22;9799;48.214;16.388;2023-04-24T04:07:47;14.50;99.90
19330;DHT22;9799;48.214;16.388;2023-04-24T04:11:10;14.50;99.90
19330;DHT22;9799;48.214;16.388;2023-04-24T04:14:31;14.60;99.90
19330;DHT22;9799;48.214;16.388;2023-04-24T04:17:52;14.60;99.90
19330;DHT22;9799;48.214;16.388;2023-04-24T04:21:13;14.60;99.90
19330;DHT22;9799;48.214;16.388;2023-04-24T04:24:36;14.60;99.90
19330;DHT22;9799;48.214;16.388;2023-04-24T04:27:59;14.60;99.90
19330;DHT22;9799;48.214;16.388;2023-04-24T04:31:21;14.60;99.90
19330;DHT22;9799;48.214;16.388;2023-04-24T04:34:43;14.60;99.90
19330;DHT22;9799;48.214;16.388;2023-04-24T04:38:05;14.70;99.90
19330;DHT22;9799;48.214;16.388;2023-04-24T04:41:28;14.70;99.90
19330;DHT22;9799;48.214;16.388;2023-04-24T04:44:51;14.60;99.90
19330;DHT22;9799;48.214;16.388;2023-04-24T04:48:12;14.60;99.90
19330;DHT22;9799;48.214;16.388;2023-04-24T04:51:34;14.70;99.90
19330;DHT22;9799;48.214;16.388;2023-04-24T04:54:55;14.70;99.90
19330;DHT22;9799;48.214;16.388;2023-04-24T04:58:16;14.60;99.90
19330;DHT22;9799;48.214;16.388;2023-04-24T05:01:39;14.60;99.90
19330;DHT22;9799;48.214;16.388;2023-04-24T05:05:00;14.60;99.90
19330;DHT22;9799;48.214;16.388;2023-04-24T05:08:22;14.60;99.90
19330;DHT22;9799;48.214;16.388;2023-04-24T05:11:43;14.70;99.90
19330;DHT22;9799;48.214;16.388;2023-04-24T05:15:05;14.70;99.90
19330;DHT22;9799;48.214;16.388;2023-04-24T05:18:27;14.80;99.90
19330;DHT22;9799;48.214;16.388;2023-04-24T05:21:49;14.90;99.90
19330;DHT22;9799;48.214;16.388;2023-04-24T05:25:10;14.90;99.90
19330;DHT22;9799;48.214;16.388;2023-04-24T05:28:32;15.10;99.90
19330;DHT22;9799;48.214;16.388;2023-04-24T05:31:53;15.30;99.90
19330;DHT22;9799;48.214;16.388;2023-04-24T05:35:16;15.40;99.90
19330;DHT22;9799;48.214;16.388;2023-04-24T05:38:38;15.40;99.90
19330;DHT22;9799;48.214;16.388;2023-04-24T05:41:59;15.40;99.90
19330;DHT22;9799;48.214;16.388;2023-04-24T05:45:21;15.30;99.90
19330;DHT22;9799;48.214;16.388;2023-04-24T05:48:42;15.20;99.90
19330;DHT22;9799;48.214;16.388;2023-04-24T05:52:04;15.30;99.90
19330;DHT22;9799;48.214;16.388;2023-04-24T05:55:31;15.40;99.90
19330;DHT22;9799;48.214;16.388;2023-04-24T05:58:52;15.50;99.90
19330;DHT22;9799;48.214;16.388;2023-04-24T06:02:14;15.50;99.90
19330;DHT22;9799;48.214;16.388;2023-04-24T06:05:35;15.60;99.90
19330;DHT22;9799;48.214;16.388;2023-04-24T06:08:57;15.70;99.90
19330;DHT22;9799;48.214;16.388;2023-04-24T06:12:19;15.50;99.90
19330;DHT22;9799;48.214;16.388;2023-04-24T06:15:40;15.50;99.90
19330;DHT22;9799;48.214;16.388;2023-04-24T06:19:01;15.40;99.90
19330;DHT22;9799;48.214;16.388;2023-04-24T06:22:22;15.50;99.90
19330;DHT22;9799;48.214;16.388;2023-04-24T06:25:45;15.60;99.90
19330;DHT22;9799;48.214;16.388;2023-04-24T06:29:06;15.80;99.90
19330;DHT22;9799;48.214;16.388;2023-04-24T06:32:28;15.90;99.90
19330;DHT22;9799;48.214;16.388;2023-04-24T06:35:50;15.80;99.90
19330;DHT22;9799;48.214;16.388;2023-04-24T06:39:11;15.80;99.90
19330;DHT22;9799;48.214;16.388;2023-04-24T06:42:34;15.90;99.90
19330;DHT22;9799;48.214;16.388;2023-04-24T06:45:56;15.90;99.90
19330;DHT22;9799;48.214;16.388;2023-04-24T06:49:17;15.80;99.90
19330;DHT22;9799;48.214;16.388;2023-04-24T06:52:40;15.90;99.90
19330;DHT22;9799;48.214;16.388;2023-04-24T06:56:01;16.00;99.90
19330;DHT22;9799;48.214;16.388;2023-04-24T06:59:24;16.10;99.90
19330;DHT22;9799;48.214;16.388;2023-04-24T07:02:46;16.20;99.90
19330;DHT22;9799;48.214;16.388;2023-04-24T07:06:07;16.20;99.90
19330;DHT22;9799;48.214;16.388;2023-04-24T07:09:28;16.20;99.90
19330;DHT22;9799;48.214;16.388;2023-04-24T07:12:49;16.20;99.90
19330;DHT22;9799;48.214;16.388;2023-04-24T07:16:12;16.20;99.90
19330;DHT22;9799;48.214;16.388;2023-04-24T07:19:33;16.20;99.90
19330;DHT22;9799;48.214;16.388;2023-04-24T07:22:55;16.20;99.90
19330;DHT22;9799;48.214;16.388;2023-04-24T07:26:16;16.10;99.90
19330;DHT22;9799;48.214;16.388;2023-04-24T07:29:37;16.20;99.90
19330;DHT22;9799;48.214;16.388;2023-04-24T07:33:01;16.10;99.90
19330;DHT22;9799;48.214;16.388;2023-04-24T07:36:22;16.20;99.90
19330;DHT22;9799;48.214;16.388;2023-04-24T07:39:44;16.20;99.90
19330;DHT22;9799;48.214;16.388;2023-04-24T07:43:05;16.30;99.90
19330;DHT22;9799;48.214;16.388;2023-04-24T07:46:26;16.20;99.90
19330;DHT22;9799;48.214;16.388;2023-04-24T07:49:51;16.10;99.90
19330;DHT22;9799;48.214;16.388;2023-04-24T07:53:12;16.20;99.90
19330;DHT22;9799;48.214;16.388;2023-04-24T07:56:33;16.20;99.90
19330;DHT22;9799;48.214;16.388;2023-04-24T07:59:58;16.20;99.90
19330;DHT22;9799;48.214;16.388;2023-04-24T08:03:19;16.20;99.90
19330;DHT22;9799;48.214;16.388;2023-04-24T08:06:42;16.30;99.90
19330;DHT22;9799;48.214;16.388;2023-04-24T08:10:04;16.40;99.90
19330;DHT22;9799;48.214;16.388;2023-04-24T08:13:26;16.10;99.90
19330;DHT22;9799;48.214;16.388;2023-04-24T08:16:47;16.00;99.90
19330;DHT22;9799;48.214;16.388;2023-04-24T08:20:09;16.00;99.90
19330;DHT22;9799;48.214;16.388;2023-04-24T08:23:34;15.90;99.90
19330;DHT22;9799;48.214;16.388;2023-04-24T08:26:55;15.90;99.90
19330;DHT22;9799;48.214;16.388;2023-04-24T08:30:18;15.80;99.90
19330;DHT22;9799;48.214;16.388;2023-04-24T08:33:39;15.70;99.90
19330;DHT22;9799;48.214;16.388;2023-04-24T08:37:00;15.80;99.90
19330;DHT22;9799;48.214;16.388;2023-04-24T08:40:28;15.80;99.90
19330;DHT22;9799;48.214;16.388;2023-04-24T08:43:50;15.70;99.90
19330;DHT22;9799;48.214;16.388;2023-04-24T08:47:12;15.60;99.90
19330;DHT22;9799;48.214;16.388;2023-04-24T08:50:34;15.60;99.90
19330;DHT22;9799;48.214;16.388;2023-04-24T08:53:56;15.50;99.90
19330;DHT22;9799;48.214;16.388;2023-04-24T08:57:19;15.30;99.90
19330;DHT22;9799;48.214;16.388;2023-04-24T09:00:41;15.00;99.90
19330;DHT22;9799;48.214;16.388;2023-04-24T09:04:07;14.90;99.90
19330;DHT22;9799;48.214;16.388;2023-04-24T09:07:31;14.80;99.90
19330;DHT22;9799;48.214;16.388;2023-04-24T09:10:56;14.60;99.90
19330;DHT22;9799;48.214;16.388;2023-04-24T09:14:20;14.50;99.90
19330;DHT22;9799;48.214;16.388;2023-04-24T09:17:43;14.40;99.90
19330;DHT22;9799;48.214;16.388;2023-04-24T09:21:08;14.40;99.90
19330;DHT22;9799;48.214;16.388;2023-04-24T09:24:29;14.40;99.90
19330;DHT22;9799;48.214;16.388;2023-04-24T09:27:54;14.40;99.90
19330;DHT22;9799;48.214;16.388;2023-04-24T09:31:18;14.40;99.90
19330;DHT22;9799;48.214;16.388;2023-04-24T09:34:41;14.20;99.90
19330;DHT22;9799;48.214;16.388;2023-04-24T09:38:03;14.20;99.90
19330;DHT22;9799;48.214;16.388;2023-04-24T09:41:26;14.10;99.90
19330;DHT22;9799;48.214;16.388;2023-04-24T09:44:49;14.30;99.90
19330;DHT22;9799;48.214;16.388;2023-04-24T09:48:13;14.20;99.90
19330;DHT22;9799;48.214;16.388;2023-04-24T09:51:35;14.30;99.90
19330;DHT22;9799;48.214;16.388;2023-04-24T09:54:57;14.30;99.90
19330;DHT22;9799;48.214;16.388;2023-04-24T09:58:18;14.10;99.90
19330;DHT22;9799;48.214;16.388;2023-04-24T10:01:45;14.10;99.90
19330;DHT22;9799;48.214;16.388;2023-04-24T10:05:11;14.20;99.90
19330;DHT22;9799;48.214;16.388;2023-04-24T10:08:33;14.30;99.90
19330;DHT22;9799;48.214;16.388;2023-04-24T10:11:57;14.30;99.90
19330;DHT22;9799;48.214;16.388;2023-04-24T10:15:20;14.40;99.90
19330;DHT22;9799;48.214;16.388;2023-04-24T10:18:42;14.30;99.90
19330;DHT22;9799;48.214;16.388;2023-04-24T10:22:04;14.30;99.90
19330;DHT22;9799;48.214;16.388;2023-04-24T10:25:28;14.30;99.90
19330;DHT22;9799;48.214;16.388;2023-04-24T10:28:50;14.30;99.90
19330;DHT22;9799;48.214;16.388;2023-04-24T10:32:11;14.20;99.90
19330;DHT22;9799;48.214;16.388;2023-04-24T10:35:36;14.30;99.90
19330;DHT22;9799;48.214;16.388;2023-04-24T10:39:02;14.30;99.90
19330;DHT22;9799;48.214;16.388;2023-04-24T10:42:23;14.20;99.90
19330;DHT22;9799;48.214;16.388;2023-04-24T10:46:00;14.30;99.90
19330;DHT22;9799;48.214;16.388;2023-04-24T10:49:28;14.30;99.90
19330;DHT22;9799;48.214;16.388;2023-04-24T10:52:50;14.10;99.90
19330;DHT22;9799;48.214;16.388;2023-04-24T10:56:15;14.10;99.90
19330;DHT22;9799;48.214;16.388;2023-04-24T10:59:37;14.20;99.90
19330;DHT22;9799;48.214;16.388;2023-04-24T11:02:58;14.20;99.90
19330;DHT22;9799;48.214;16.388;2023-04-24T11:06:29;14.10;99.90
19330;DHT22;9799;48.214;16.388;2023-04-24T11:09:58;14.10;99.90
19330;DHT22;9799;48.214;16.388;2023-04-24T11:13:23;14.10;99.90
19330;DHT22;9799;48.214;16.388;2023-04-24T11:16:47;14.10;99.90
19330;DHT22;9799;48.214;16.388;2023-04-24T11:20:17;14.10;99.90
19330;DHT22;9799;48.214;16.388;2023-04-24T11:23:39;14.10;99.90
19330;DHT22;9799;48.214;16.388;2023-04-24T11:27:07;14.00;99.90
19330;DHT22;9799;48.214;16.388;2023-04-24T11:30:34;14.00;99.90
19330;DHT22;9799;48.214;16.388;2023-04-24T11:33:56;14.00;99.90
19330;DHT22;9799;48.214;16.388;2023-04-24T11:37:17;14.10;99.90
19330;DHT22;9799;48.214;16.388;2023-04-24T11:40:39;14.20;99.90
19330;DHT22;9799;48.214;16.388;2023-04-24T11:44:00;14.10;99.90
19330;DHT22;9799;48.214;16.388;2023-04-24T11:47:29;14.20;99.90
19330;DHT22;9799;48.214;16.388;2023-04-24T11:50:50;14.40;99.90
19330;DHT22;9799;48.214;16.388;2023-04-24T11:54:12;14.40;99.90
19330;DHT22;9799;48.214;16.388;2023-04-24T11:57:33;14.50;99.90
19330;DHT22;9799;48.214;16.388;2023-04-24T12:00:56;14.40;99.90
19330;DHT22;9799;48.214;16.388;2023-04-24T12:04:20;14.40;99.90
19330;DHT22;9799;48.214;16.388;2023-04-24T12:07:42;14.40;99.90
19330;DHT22;9799;48.214;16.388;2023-04-24T12:11:05;14.50;99.90
19330;DHT22;9799;48.214;16.388;2023-04-24T12:14:28;14.50;99.90
19330;DHT22;9799;48.214;16.388;2023-04-24T12:17:51;14.50;99.90
19330;DHT22;9799;48.214;16.388;2023-04-24T12:21:21;14.60;99.90
19330;DHT22;9799;48.214;16.388;2023-04-24T12:24:57;14.70;99.90
19330;DHT22;9799;48.214;16.388;2023-04-24T12:28:18;14.80;99.90
19330;DHT22;9799;48.214;16.388;2023-04-24T12:31:39;14.80;99.90
19330;DHT22;9799;48.214;16.388;2023-04-24T12:35:01;14.90;99.90
19330;DHT22;9799;48.214;16.388;2023-04-24T12:38:28;14.80;99.90
19330;DHT22;9799;48.214;16.388;2023-04-24T12:41:57;15.00;99.90
19330;DHT22;9799;48.214;16.388;2023-04-24T12:45:19;14.90;99.90
19330;DHT22;9799;48.214;16.388;2023-04-24T12:48:43;14.90;99.90
19330;DHT22;9799;48.214;16.388;2023-04-24T12:52:04;14.90;99.90
19330;DHT22;9799;48.214;16.388;2023-04-24T12:55:27;14.90;99.90
19330;DHT22;9799;48.214;16.388;2023-04-24T12:58:48;14.90;99.90
19330;DHT22;9799;48.214;16.388;2023-04-24T13:02:11;15.00;99.90
19330;DHT22;9799;48.214;16.388;2023-04-24T13:05:32;15.00;99.90
19330;DHT22;9799;48.214;16.388;2023-04-24T13:08:54;15.00;99.90
19330;DHT22;9799;48.214;16.388;2023-04-24T13:12:19;15.00;99.90
19330;DHT22;9799;48.214;16.388;2023-04-24T13:15:44;15.00;99.90
19330;DHT22;9799;48.214;16.388;2023-04-24T13:19:05;15.10;99.90
19330;DHT22;9799;48.214;16.388;2023-04-24T13:22:26;15.20;99.90
19330;DHT22;9799;48.214;16.388;2023-04-24T13:25:48;15.20;99.90
19330;DHT22;9799;48.214;16.388;2023-04-24T13:29:10;15.10;99.90
19330;DHT22;9799;48.214;16.388;2023-04-24T13:32:32;15.10;99.90
19330;DHT22;9799;48.214;16.388;2023-04-24T13:35:54;15.00;99.90
19330;DHT22;9799;48.214;16.388;2023-04-24T13:39:16;14.90;99.90
19330;DHT22;9799;48.214;16.388;2023-04-24T13:42:37;14.90;99.90
19330;DHT22;9799;48.214;16.388;2023-04-24T13:46:00;15.00;99.90
19330;DHT22;9799;48.214;16.388;2023-04-24T13:49:23;15.00;99.90
19330;DHT22;9799;48.214;16.388;2023-04-24T13:52:45;15.10;99.90
19330;DHT22;9799;48.214;16.388;2023-04-24T13:56:06;15.10;99.90
19330;DHT22;9799;48.214;16.388;2023-04-24T13:59:28;15.10;99.90
19330;DHT22;9799;48.214;16.388;2023-04-24T14:02:51;15.00;99.90
19330;DHT22;9799;48.214;16.388;2023-04-24T14:06:12;15.10;99.90
19330;DHT22;9799;48.214;16.388;2023-04-24T14:09:33;15.00;99.90
19330;DHT22;9799;48.214;16.388;2023-04-24T14:12:55;14.90;99.90
19330;DHT22;9799;48.214;16.388;2023-04-24T14:16:16;14.70;99.90
19330;DHT22;9799;48.214;16.388;2023-04-24T14:19:39;14.70;99.90
19330;DHT22;9799;48.214;16.388;2023-04-24T14:23:00;14.60;99.90
19330;DHT22;9799;48.214;16.388;2023-04-24T14:26:21;14.70;99.90
19330;DHT22;9799;48.214;16.388;2023-04-24T14:29:44;14.70;99.90
19330;DHT22;9799;48.214;16.388;2023-04-24T14:33:05;14.60;99.90
19330;DHT22;9799;48.214;16.388;2023-04-24T14:36:28;14.60;99.90
19330;DHT22;9799;48.214;16.388;2023-04-24T14:39:50;14.50;99.90
19330;DHT22;9799;48.214;16.388;2023-04-24T14:43:11;14.60;99.90
19330;DHT22;9799;48.214;16.388;2023-04-24T14:46:32;14.50;99.90
19330;DHT22;9799;48.214;16.388;2023-04-24T14:49:53;14.60;99.90
19330;DHT22;9799;48.214;16.388;2023-04-24T14:53:16;14.70;99.90
19330;DHT22;9799;48.214;16.388;2023-04-24T14:56:38;14.70;99.90
19330;DHT22;9799;48.214;16.388;2023-04-24T15:00:00;14.70;99.90
19330;DHT22;9799;48.214;16.388;2023-04-24T15:03:23;14.70;99.90
19330;DHT22;9799;48.214;16.388;2023-04-24T15:06:46;14.60;99.90
19330;DHT22;9799;48.214;16.388;2023-04-24T15:10:10;14.60;99.90
19330;DHT22;9799;48.214;16.388;2023-04-24T15:13:31;14.50;99.90
19330;DHT22;9799;48.214;16.388;2023-04-24T15:16:52;14.50;99.90
19330;DHT22;9799;48.214;16.388;2023-04-24T15:20:14;14.50;99.90
19330;DHT22;9799;48.214;16.388;2023-04-24T15:23:35;14.50;99.90
19330;DHT22;9799;48.214;16.388;2023-04-24T15:26:58;14.50;99.90
19330;DHT22;9799;48.214;16.388;2023-04-24T15:30:21;14.50;99.90
19330;DHT22;9799;48.214;16.388;2023-04-24T15:33:42;14.50;99.90
19330;DHT22;9799;48.214;16.388;2023-04-24T15:37:04;14.50;99.90
19330;DHT22;9799;48.214;16.388;2023-04-24T15:40:25;14.40;99.90
19330;DHT22;9799;48.214;16.388;2023-04-24T15:43:48;14.20;99.90
19330;DHT22;9799;48.214;16.388;2023-04-24T15:47:10;14.10;99.90
19330;DHT22;9799;48.214;16.388;2023-04-24T15:50:33;13.90;99.90
19330;DHT22;9799;48.214;16.388;2023-04-24T15:53:55;13.60;99.90
19330;DHT22;9799;48.214;16.388;2023-04-24T15:57:16;13.50;99.90
19330;DHT22;9799;48.214;16.388;2023-04-24T16:00:39;13.40;99.90
19330;DHT22;9799;48.214;16.388;2023-04-24T16:04:00;13.20;99.90
19330;DHT22;9799;48.214;16.388;2023-04-24T16:07:21;13.30;99.90
19330;DHT22;9799;48.214;16.388;2023-04-24T16:10:43;13.30;99.90
19330;DHT22;9799;48.214;16.388;2023-04-24T16:14:05;13.30;99.90
19330;DHT22;9799;48.214;16.388;2023-04-24T16:17:28;13.10;99.90
19330;DHT22;9799;48.214;16.388;2023-04-24T16:20:49;13.00;99.90
19330;DHT22;9799;48.214;16.388;2023-04-24T16:24:11;13.00;99.90
19330;DHT22;9799;48.214;16.388;2023-04-24T16:27:32;13.10;99.90
19330;DHT22;9799;48.214;16.388;2023-04-24T16:30:54;13.10;99.90
19330;DHT22;9799;48.214;16.388;2023-04-24T16:34:16;13.10;99.90
19330;DHT22;9799;48.214;16.388;2023-04-24T16:37:38;13.00;99.90
19330;DHT22;9799;48.214;16.388;2023-04-24T16:40:59;13.10;99.90
19330;DHT22;9799;48.214;16.388;2023-04-24T16:44:20;13.10;99.90
19330;DHT22;9799;48.214;16.388;2023-04-24T16:47:41;12.90;99.90
19330;DHT22;9799;48.214;16.388;2023-04-24T16:51:04;12.80;99.90
19330;DHT22;9799;48.214;16.388;2023-04-24T16:54:26;12.80;99.90
19330;DHT22;9799;48.214;16.388;2023-04-24T16:57:49;12.80;99.90
19330;DHT22;9799;48.214;16.388;2023-04-24T17:01:10;12.70;99.90
19330;DHT22;9799;48.214;16.388;2023-04-24T17:04:31;12.80;99.90
19330;DHT22;9799;48.214;16.388;2023-04-24T17:07:55;12.80;99.90
19330;DHT22;9799;48.214;16.388;2023-04-24T17:11:17;13.00;99.90
19330;DHT22;9799;48.214;16.388;2023-04-24T17:14:38;13.00;99.90
19330;DHT22;9799;48.214;16.388;2023-04-24T17:18:00;12.90;99.90
19330;DHT22;9799;48.214;16.388;2023-04-24T17:21:21;13.00;99.90
19330;DHT22;9799;48.214;16.388;2023-04-24T17:24:44;13.00;99.90
19330;DHT22;9799;48.214;16.388;2023-04-24T17:28:13;12.90;99.90
19330;DHT22;9799;48.214;16.388;2023-04-24T17:31:37;13.00;99.90
19330;DHT22;9799;48.214;16.388;2023-04-24T17:34:59;13.10;99.90
19330;DHT22;9799;48.214;16.388;2023-04-24T17:38:21;13.00;99.90
19330;DHT22;9799;48.214;16.388;2023-04-24T17:41:44;13.00;99.90
19330;DHT22;9799;48.214;16.388;2023-04-24T17:45:07;12.90;99.90
19330;DHT22;9799;48.214;16.388;2023-04-24T17:48:28;13.00;99.90
19330;DHT22;9799;48.214;16.388;2023-04-24T17:51:51;13.00;99.90
19330;DHT22;9799;48.214;16.388;2023-04-24T17:55:13;13.00;99.90
19330;DHT22;9799;48.214;16.388;2023-04-24T17:58:37;13.10;99.90
19330;DHT22;9799;48.214;16.388;2023-04-24T18:01:58;13.00;99.90
19330;DHT22;9799;48.214;16.388;2023-04-24T18:05:20;13.00;99.90
19330;DHT22;9799;48.214;16.388;2023-04-24T18:08:41;12.90;99.90
19330;DHT22;9799;48.214;16.388;2023-04-24T18:12:04;13.00;99.90
19330;DHT22;9799;48.214;16.388;2023-04-24T18:15:27;12.90;99.90
19330;DHT22;9799;48.214;16.388;2023-04-24T18:18:56;12.90;99.90
19330;DHT22;9799;48.214;16.388;2023-04-24T18:22:17;12.90;99.90
19330;DHT22;9799;48.214;16.388;2023-04-24T18:25:39;12.80;99.90
19330;DHT22;9799;48.214;16.388;2023-04-24T18:29:00;12.80;99.90
19330;DHT22;9799;48.214;16.388;2023-04-24T18:32:24;12.70;99.90
19330;DHT22;9799;48.214;16.388;2023-04-24T18:35:46;12.70;99.90
19330;DHT22;9799;48.214;16.388;2023-04-24T18:39:08;12.70;99.90
19330;DHT22;9799;48.214;16.388;2023-04-24T18:42:29;12.70;99.90
19330;DHT22;9799;48.214;16.388;2023-04-24T18:45:51;12.80;99.90
19330;DHT22;9799;48.214;16.388;2023-04-24T18:49:14;12.60;99.90
19330;DHT22;9799;48.214;16.388;2023-04-24T18:52:36;12.70;99.90
19330;DHT22;9799;48.214;16.388;2023-04-24T18:55:58;12.80;99.90
19330;DHT22;9799;48.214;16.388;2023-04-24T18:59:19;12.90;99.90
19330;DHT22;9799;48.214;16.388;2023-04-24T19:02:41;12.90;99.90
19330;DHT22;9799;48.214;16.388;2023-04-24T19:06:04;12.80;99.90
19330;DHT22;9799;48.214;16.388;2023-04-24T19:09:26;12.80;99.90
19330;DHT22;9799;48.214;16.388;2023-04-24T19:12:48;12.80;99.90
19330;DHT22;9799;48.214;16.388;2023-04-24T19:16:15;12.80;99.90
19330;DHT22;9799;48.214;16.388;2023-04-24T19:19:37;12.80;99.90
19330;DHT22;9799;48.214;16.388;2023-04-24T19:23:01;12.80;99.90
19330;DHT22;9799;48.214;16.388;2023-04-24T19:26:23;12.90;99.90
19330;DHT22;9799;48.214;16.388;2023-04-24T19:29:50;12.90;99.90
19330;DHT22;9799;48.214;16.388;2023-04-24T19:33:12;12.90;99.90
19330;DHT22;9799;48.214;16.388;2023-04-24T19:36:33;12.80;99.90
19330;DHT22;9799;48.214;16.388;2023-04-24T19:39:57;12.70;99.90
19330;DHT22;9799;48.214;16.388;2023-04-24T19:43:18;12.80;99.90
19330;DHT22;9799;48.214;16.388;2023-04-24T19:46:41;12.80;99.90
19330;DHT22;9799;48.214;16.388;2023-04-24T19:50:03;12.80;99.90
19330;DHT22;9799;48.214;16.388;2023-04-24T19:53:25;12.80;99.90
19330;DHT22;9799;48.214;16.388;2023-04-24T19:56:48;12.80;99.90
19330;DHT22;9799;48.214;16.388;2023-04-24T20:00:11;12.70;99.90
19330;DHT22;9799;48.214;16.388;2023-04-24T20:03:32;12.70;99.90
19330;DHT22;9799;48.214;16.388;2023-04-24T20:06:54;12.70;99.90
19330;DHT22;9799;48.214;16.388;2023-04-24T20:10:15;12.80;99.90
19330;DHT22;9799;48.214;16.388;2023-04-24T20:13:41;12.80;99.90
19330;DHT22;9799;48.214;16.388;2023-04-24T20:17:02;12.70;99.90
19330;DHT22;9799;48.214;16.388;2023-04-24T20:20:24;12.70;99.90
19330;DHT22;9799;48.214;16.388;2023-04-24T20:23:45;12.70;99.90
19330;DHT22;9799;48.214;16.388;2023-04-24T20:27:07;12.60;99.90
19330;DHT22;9799;48.214;16.388;2023-04-24T20:30:29;12.70;99.90
19330;DHT22;9799;48.214;16.388;2023-04-24T20:33:52;12.70;99.90
19330;DHT22;9799;48.214;16.388;2023-04-24T20:37:13;12.50;99.90
19330;DHT22;9799;48.214;16.388;2023-04-24T20:40:34;12.50;99.90
19330;DHT22;9799;48.214;16.388;2023-04-24T20:43:55;12.50;99.90
19330;DHT22;9799;48.214;16.388;2023-04-24T20:47:18;12.60;99.90
19330;DHT22;9799;48.214;16.388;2023-04-24T20:50:39;12.60;99.90
19330;DHT22;9799;48.214;16.388;2023-04-24T20:54:02;12.70;99.90
19330;DHT22;9799;48.214;16.388;2023-04-24T20:57:23;12.60;99.90
19330;DHT22;9799;48.214;16.388;2023-04-24T21:00:44;12.60;99.90
19330;DHT22;9799;48.214;16.388;2023-04-24T21:04:07;12.60;99.90
19330;DHT22;9799;48.214;16.388;2023-04-24T21:07:28;12.70;99.90
19330;DHT22;9799;48.214;16.388;2023-04-24T21:10:49;12.70;99.90
19330;DHT22;9799;48.214;16.388;2023-04-24T21:14:11;12.60;99.90
19330;DHT22;9799;48.214;16.388;2023-04-24T21:17:32;12.60;99.90